Terminal Aerodrome Forecast
Issued by NWS Jackson, KY

Home | Current Version | Previous Version | Text Only | Print | Product List | Glossary On
Versions: 1 2 3 4 5 6 7 8 9 10 11 12 13 14 15 16 17
000
FTUS43 KJKL 021700
TAFJKL
TAF
KJKL 021734Z 0218/0318 VRB03KT P6SM SKC
     FM030900 18004KT P6SM VCSH BKN060 WS020/21045KT
     FM031300 19006KT 5SM -SHRA VCTS BKN035CB OVC140
     FM031600 21006KT P6SM VCSH BKN035=

USA.gov is the U.S. government's official web portal to all federal, state and local government web resources and services.